createdAt,value
2022-10-03T06:43:07.154Z,13.65
2022-10-03T06:46:17.774Z,14.52
2022-10-03T06:49:25.678Z,14.10
2022-10-03T06:52:18.328Z,14.30
2022-10-03T06:55:22.651Z,15.38
2022-10-03T07:00:53.566Z,16.35
2022-10-03T07:03:54.561Z,14.88
2022-10-03T07:06:51.267Z,13.85
2022-10-03T07:10:12.684Z,15.20
2022-10-03T07:13:02.424Z,14.70
2022-10-03T07:16:25.041Z,14.48
2022-10-03T07:19:16.380Z,13.48
2022-10-03T07:22:26.938Z,13.75
2022-10-03T07:25:25.278Z,13.02
2022-10-03T07:28:14.327Z,12.57
2022-10-03T07:31:02.417Z,10.43
2022-10-03T07:33:52.284Z,10.77
2022-10-03T07:36:50.688Z,11.18
2022-10-03T07:39:50.922Z,12.55
2022-10-03T07:42:52.628Z,11.70
2022-10-03T07:45:34.928Z,12.15
2022-10-03T07:48:35.039Z,11.00
2022-10-03T07:51:24.461Z,11.05
2022-10-03T07:54:27.664Z,10.30
2022-10-03T07:57:24.707Z,10.20
2022-10-03T08:00:17.151Z,11.55
2022-10-03T08:03:17.831Z,10.75
2022-10-03T08:06:19.474Z,10.80
2022-10-03T08:09:18.867Z,11.75
2022-10-03T08:12:16.617Z,8.88
2022-10-03T08:14:57.076Z,9.23
2022-10-03T08:17:55.630Z,8.75
2022-10-03T08:20:43.501Z,8.60
2022-10-03T08:23:34.105Z,8.45
2022-10-03T08:26:17.268Z,9.02
2022-10-03T08:29:12.586Z,9.45
2022-10-03T08:32:18.746Z,9.45
2022-10-03T08:35:20.735Z,10.35
2022-10-03T08:38:15.609Z,8.55
2022-10-03T08:41:33.270Z,8.02
2022-10-03T08:44:30.520Z,7.88
2022-10-03T08:47:29.168Z,7.93
2022-10-03T08:50:34.340Z,7.32
2022-10-03T08:53:49.735Z,7.85
2022-10-03T08:56:28.347Z,6.90
2022-10-03T08:59:28.768Z,7.18
2022-10-03T09:02:22.206Z,7.05
2022-10-03T09:05:31.479Z,6.38
2022-10-03T09:08:39.640Z,6.53
2022-10-03T09:11:45.303Z,5.00
2022-10-03T09:14:37.128Z,5.55
2022-10-03T09:17:34.665Z,5.45
2022-10-03T09:20:20.819Z,5.38
2022-10-03T09:23:20.143Z,5.15
2022-10-03T09:26:11.128Z,5.30
2022-10-03T09:29:10.566Z,4.53
2022-10-03T09:32:06.823Z,4.68
2022-10-03T09:35:10.686Z,4.75
2022-10-03T09:38:05.079Z,4.78
2022-10-03T09:41:21.543Z,4.13
2022-10-03T09:44:13.468Z,4.22
2022-10-03T09:47:23.804Z,3.45
2022-10-03T09:50:25.486Z,3.85
2022-10-03T09:53:24.546Z,3.47
2022-10-03T09:56:22.497Z,3.53
2022-10-03T09:59:19.926Z,3.65
2022-10-03T10:01:55.291Z,4.35
2022-10-03T10:04:56.315Z,3.80
2022-10-03T10:07:59.792Z,3.00
2022-10-03T10:11:09.684Z,3.75
2022-10-03T10:14:08.821Z,3.10
2022-10-03T10:16:53.477Z,3.20
2022-10-03T10:19:53.040Z,3.10
2022-10-03T10:22:52.043Z,2.95
2022-10-03T10:25:48.753Z,3.25
2022-10-03T10:28:59.418Z,3.40
2022-10-03T10:32:01.333Z,2.60
2022-10-03T10:35:17.591Z,3.90
2022-10-03T10:38:25.925Z,2.95
2022-10-03T10:41:32.589Z,3.35
2022-10-03T10:44:33.968Z,2.70
2022-10-03T10:47:44.729Z,2.50
2022-10-03T10:50:44.808Z,3.05
2022-10-03T10:53:50.013Z,2.97
2022-10-03T10:57:01.418Z,2.45
2022-10-03T11:00:00.788Z,3.22
2022-10-03T11:03:06.265Z,3.95
2022-10-03T11:05:54.310Z,2.92
2022-10-03T11:09:00.011Z,1.92
2022-10-03T11:12:18.065Z,2.40
2022-10-03T11:15:23.735Z,1.70
2022-10-03T11:18:30.953Z,2.17
2022-10-03T11:21:38.794Z,2.15
2022-10-03T11:24:26.657Z,2.03
2022-10-03T11:27:34.472Z,1.60
2022-10-03T11:30:19.549Z,1.63
2022-10-03T11:33:27.736Z,1.77
2022-10-03T11:36:28.962Z,1.70
2022-10-03T11:39:05.570Z,2.20
2022-10-03T11:41:47.711Z,1.70
2022-10-03T11:44:23.572Z,2.30
2022-10-03T11:47:16.514Z,1.75
2022-10-03T11:50:13.175Z,1.90
2022-10-03T11:52:55.905Z,1.75
2022-10-03T11:55:32.028Z,1.70
2022-10-03T11:58:15.107Z,1.40
2022-10-03T12:00:48.039Z,1.73
2022-10-03T12:03:27.120Z,2.47
2022-10-03T12:06:13.711Z,2.78
2022-10-03T12:08:59.088Z,3.03
2022-10-03T12:11:31.080Z,2.53
2022-10-03T12:14:15.388Z,2.83
2022-10-03T12:17:03.181Z,2.78
2022-10-03T12:19:35.944Z,2.67
2022-10-03T12:22:18.052Z,2.90
2022-10-03T12:24:49.788Z,2.97
2022-10-03T12:27:30.128Z,3.15
2022-10-03T12:30:01.525Z,2.67
2022-10-03T12:32:49.550Z,2.67
2022-10-03T12:35:34.812Z,2.75
2022-10-03T12:38:24.655Z,2.65
2022-10-03T12:41:04.689Z,2.83
2022-10-03T12:43:50.979Z,2.70
2022-10-03T12:46:30.909Z,2.38
2022-10-03T12:49:05.020Z,2.20
2022-10-03T12:51:52.259Z,2.83
2022-10-03T12:54:39.292Z,2.70
2022-10-03T12:57:47.425Z,2.38
2022-10-03T13:00:22.270Z,3.03
2022-10-03T13:03:07.404Z,2.88
2022-10-03T13:05:53.620Z,4.63
2022-10-03T13:08:39.881Z,3.10
2022-10-03T13:11:26.003Z,4.00
2022-10-03T13:14:08.945Z,3.53
2022-10-03T13:16:44.065Z,3.70
2022-10-03T13:19:17.594Z,3.65
2022-10-03T13:24:40.487Z,3.17
2022-10-03T13:27:32.419Z,3.67
2022-10-03T13:30:07.165Z,3.67
2022-10-03T13:32:37.839Z,3.83
2022-10-03T13:35:37.380Z,4.15
2022-10-03T13:38:22.196Z,3.30
2022-10-03T13:41:00.170Z,3.47
2022-10-03T13:43:35.816Z,3.58
2022-10-03T13:46:12.090Z,3.55
2022-10-03T13:48:42.566Z,4.03
2022-10-03T13:51:23.096Z,3.05
2022-10-03T13:54:01.274Z,3.08
2022-10-03T13:56:41.894Z,3.38
2022-10-03T13:59:28.721Z,3.60
2022-10-03T14:02:05.127Z,3.05
2022-10-03T14:05:01.679Z,3.15
2022-10-03T14:07:39.797Z,2.70
2022-10-03T14:10:26.446Z,2.92
2022-10-03T14:13:19.782Z,3.10
2022-10-03T14:15:54.047Z,3.35
2022-10-03T14:18:53.588Z,2.88
2022-10-03T14:21:41.937Z,3.58
2022-10-03T14:24:26.458Z,3.35
2022-10-03T14:27:01.274Z,4.20
2022-10-03T14:29:37.928Z,3.88
2022-10-03T14:32:42.239Z,4.03
2022-10-03T14:35:10.774Z,3.50
2022-10-03T14:37:45.866Z,3.40
2022-10-03T14:40:20.009Z,4.18
2022-10-03T14:43:09.699Z,3.63
2022-10-03T14:45:44.805Z,3.13
2022-10-03T14:48:19.219Z,3.58
2022-10-03T14:50:54.654Z,3.72
2022-10-03T14:53:29.893Z,4.10
2022-10-03T14:56:01.848Z,3.83
2022-10-03T14:58:33.666Z,3.30
2022-10-03T15:01:14.422Z,3.78
2022-10-03T15:03:46.801Z,3.78
2022-10-03T15:06:53.687Z,3.50
2022-10-03T15:09:43.460Z,3.92
2022-10-03T15:12:17.399Z,3.50
2022-10-03T15:14:50.461Z,3.38
2022-10-03T15:17:22.808Z,4.07
2022-10-03T15:19:55.222Z,3.38
2022-10-03T15:22:36.895Z,2.72
2022-10-03T15:25:11.105Z,3.25
2022-10-03T15:27:42.659Z,2.80
2022-10-03T15:30:22.394Z,3.58
2022-10-03T15:32:52.399Z,3.42
2022-10-03T15:35:26.396Z,2.78
2022-10-03T15:37:59.731Z,3.13
2022-10-03T15:40:33.950Z,2.78
2022-10-03T15:43:09.378Z,3.20
2022-10-03T15:45:39.760Z,3.60
2022-10-03T15:48:14.239Z,3.30
2022-10-03T15:50:43.825Z,3.40
2022-10-03T15:53:38.145Z,3.08
2022-10-03T15:56:12.335Z,3.60
2022-10-03T15:58:48.236Z,3.55
2022-10-03T16:01:21.935Z,3.10
2022-10-03T16:03:53.685Z,3.83
2022-10-03T16:06:24.519Z,3.70
2022-10-03T16:09:06.190Z,3.70
2022-10-03T16:11:45.648Z,3.03
2022-10-03T16:14:21.872Z,3.22
2022-10-03T16:16:55.029Z,3.25
2022-10-03T16:19:31.772Z,3.50
2022-10-03T16:22:12.846Z,3.10
2022-10-03T16:24:51.511Z,3.38
2022-10-03T16:27:24.848Z,3.35
2022-10-03T16:30:16.143Z,3.45
2022-10-03T16:32:51.605Z,3.58
2022-10-03T16:35:33.793Z,3.67
2022-10-03T16:38:04.708Z,3.80
2022-10-03T16:46:37.792Z,3.90
2022-10-03T16:49:35.283Z,4.07
2022-10-03T16:52:07.709Z,4.82
2022-10-03T16:54:39.098Z,7.20
2022-10-03T16:57:13.845Z,6.43
2022-10-03T16:59:48.316Z,6.13
2022-10-03T17:02:22.404Z,7.00
2022-10-03T17:04:56.042Z,4.60
2022-10-03T17:09:57.297Z,4.82
2022-10-03T17:12:30.517Z,6.63
2022-10-03T17:15:05.914Z,7.03
2022-10-03T17:17:46.918Z,7.00
2022-10-03T17:20:20.902Z,7.72
2022-10-03T17:22:57.299Z,11.45
2022-10-03T17:25:43.362Z,10.40
2022-10-03T17:28:17.482Z,9.93
2022-10-03T17:30:51.266Z,8.48
2022-10-03T17:33:25.769Z,10.02
2022-10-03T17:36:05.167Z,9.57
2022-10-03T17:38:49.682Z,11.75
2022-10-03T17:41:23.712Z,11.65
2022-10-03T17:46:41.337Z,8.70
2022-10-03T17:49:23.212Z,7.28
2022-10-03T17:51:54.004Z,14.45
2022-10-03T17:54:27.873Z,14.85
2022-10-03T17:57:06.145Z,13.70
2022-10-03T17:59:44.410Z,9.57
2022-10-03T18:02:20.402Z,7.63
2022-10-03T18:05:00.422Z,6.18
2022-10-03T18:07:29.574Z,7.50
2022-10-03T18:09:57.737Z,6.60
2022-10-03T18:12:33.484Z,7.80
2022-10-03T18:15:23.559Z,6.07
2022-10-03T18:18:09.178Z,6.70
2022-10-03T18:20:48.655Z,5.68
2022-10-03T18:23:49.819Z,6.95
2022-10-03T18:26:24.852Z,6.35
2022-10-03T18:29:03.017Z,7.15
2022-10-03T18:31:35.108Z,6.32
2022-10-03T18:34:13.759Z,7.38
2022-10-03T18:36:48.519Z,6.35
2022-10-03T18:39:19.700Z,6.60
2022-10-03T18:41:50.390Z,6.10
2022-10-03T18:44:20.405Z,7.65
2022-10-03T18:46:54.651Z,8.18
2022-10-03T18:49:35.140Z,7.50
2022-10-03T18:52:12.883Z,7.25
2022-10-03T18:54:53.964Z,8.77
2022-10-03T18:57:27.862Z,8.00
2022-10-03T19:00:02.335Z,7.55
2022-10-03T19:02:36.474Z,7.50
2022-10-03T19:05:12.999Z,7.70
2022-10-03T19:07:52.055Z,7.45
2022-10-03T19:10:28.769Z,7.63
2022-10-03T19:13:04.932Z,8.25
2022-10-03T19:15:57.201Z,8.68
2022-10-03T19:18:28.430Z,8.32
2022-10-03T19:20:59.526Z,8.63
2022-10-03T19:23:36.353Z,8.18
2022-10-03T19:26:11.204Z,9.93
2022-10-03T19:28:46.031Z,8.32
2022-10-03T19:31:19.270Z,9.32
2022-10-03T19:33:52.257Z,9.02
2022-10-03T19:36:23.708Z,9.77
2022-10-03T19:38:54.857Z,9.98
2022-10-03T19:41:29.106Z,9.43
2022-10-03T19:44:03.358Z,10.88
2022-10-03T19:46:45.596Z,10.00
2022-10-03T19:49:35.502Z,10.70
2022-10-03T19:52:28.988Z,8.88
2022-10-03T19:55:06.018Z,9.02
2022-10-03T19:57:41.566Z,10.73
2022-10-03T20:00:23.383Z,10.88
2022-10-03T20:02:57.779Z,9.15
2022-10-03T20:05:33.457Z,9.32
2022-10-03T20:08:08.906Z,9.20
2022-10-03T20:11:16.204Z,9.27
2022-10-03T20:13:47.442Z,10.27
2022-10-03T20:16:17.675Z,9.80
2022-10-03T20:18:50.721Z,9.93
2022-10-03T20:21:21.606Z,9.70
2022-10-03T20:23:50.020Z,8.75
2022-10-03T20:26:26.067Z,9.55
2022-10-03T20:29:12.689Z,9.23
2022-10-03T20:31:41.692Z,8.48
2022-10-03T20:34:15.654Z,9.00
2022-10-03T20:36:50.595Z,8.68
2022-10-03T20:39:24.535Z,9.00
2022-10-03T20:42:01.358Z,9.75
2022-10-03T20:44:50.150Z,10.18
2022-10-03T20:47:38.279Z,9.73
2022-10-03T20:50:15.526Z,9.73
2022-10-03T20:52:49.678Z,8.80
2022-10-03T20:55:21.497Z,11.15
2022-10-03T20:57:59.403Z,9.55
2022-10-03T21:00:28.370Z,10.50
2022-10-03T21:03:02.849Z,9.52
2022-10-03T21:05:37.210Z,10.07
2022-10-03T21:08:12.671Z,8.02
2022-10-03T21:10:45.938Z,8.95
2022-10-03T21:13:21.164Z,8.63
2022-10-03T21:15:53.521Z,8.93
2022-10-03T21:18:24.485Z,8.80
2022-10-03T21:21:03.344Z,8.63
2022-10-03T21:28:26.962Z,8.98
2022-10-03T21:31:20.957Z,8.90
2022-10-03T21:33:58.347Z,7.68
2022-10-03T21:36:32.883Z,8.57
2022-10-03T21:39:14.126Z,7.82
2022-10-03T21:41:53.722Z,8.63
2022-10-03T21:44:48.003Z,7.45
2022-10-03T21:47:31.237Z,8.13
2022-10-03T21:50:02.627Z,7.90
2022-10-03T21:52:42.296Z,7.80
2022-10-03T21:55:45.425Z,7.88
2022-10-03T21:58:31.167Z,7.68
2022-10-03T22:01:08.045Z,7.78
2022-10-03T22:03:42.795Z,7.50
2022-10-03T22:06:19.685Z,7.50
2022-10-03T22:08:50.647Z,7.80
2022-10-03T22:11:32.041Z,7.97
2022-10-03T22:14:11.193Z,7.03
2022-10-03T22:16:46.062Z,7.90
2022-10-03T22:19:22.394Z,7.80
2022-10-03T22:22:10.836Z,7.68
2022-10-03T22:24:52.450Z,7.10
2022-10-03T22:27:26.562Z,8.27
2022-10-03T22:30:05.237Z,6.90
2022-10-03T22:32:41.780Z,8.00
2022-10-03T22:35:26.578Z,7.57
2022-10-03T22:37:56.136Z,7.97
2022-10-03T22:40:25.394Z,6.95
2022-10-03T22:42:56.685Z,7.35
2022-10-03T22:45:27.923Z,6.63
2022-10-03T22:47:59.532Z,7.68
2022-10-03T22:50:33.083Z,7.72
2022-10-03T22:55:32.834Z,6.25
2022-10-03T22:58:02.907Z,7.28
2022-10-03T23:00:35.948Z,7.35
2022-10-03T23:03:11.520Z,7.45
2022-10-03T23:06:05.146Z,6.85
2022-10-03T23:08:46.686Z,7.57
2022-10-03T23:11:21.608Z,7.47
2022-10-03T23:13:50.782Z,7.30
2022-10-03T23:16:40.032Z,7.45
2022-10-03T23:19:24.975Z,6.53
2022-10-03T23:21:57.895Z,7.80
2022-10-03T23:24:32.189Z,7.78
2022-10-03T23:27:30.991Z,7.32
2022-10-03T23:30:35.992Z,6.88
2022-10-03T23:33:04.424Z,7.18
2022-10-03T23:35:41.557Z,7.35
2022-10-03T23:38:59.887Z,6.57
2022-10-03T23:41:44.266Z,7.45
2022-10-03T23:44:49.505Z,7.15
2022-10-03T23:47:21.300Z,8.40
2022-10-03T23:49:52.076Z,7.40
2022-10-03T23:52:26.140Z,7.45
2022-10-03T23:54:56.434Z,8.18
2022-10-03T23:57:31.506Z,7.72
